Time;durP1;ratioP1;P1;durP2;ratioP2;P2;SDS_P1;SDS_P2;PMS_P1;PMS_P2;Temp;Humidity;BMP_temperature;BMP_pressure;BME280_temperature;BME280_humidity;BME280_pressure;Samples;Min_cycle;Max_cycle;Signal;HPM_P1;HPM_P2
2022/11/26 00:02:23;;;;;;;11.00;4.83;;;8.50;99.90;;;;;;4996401;28;20403;-76
2022/11/26 00:04:49;;;;;;;5.90;3.70;;;8.40;99.90;;;;;;4995717;28;20410;-75
2022/11/26 00:07:21;;;;;;;7.40;3.67;;;8.40;99.90;;;;;;4996659;28;20416;-75
2022/11/26 00:09:47;;;;;;;9.60;4.03;;;8.30;99.90;;;;;;4996210;28;20441;-75
2022/11/26 00:12:17;;;;;;;6.67;4.10;;;8.40;99.90;;;;;;5009521;28;20405;-75
2022/11/26 00:14:43;;;;;;;7.37;3.93;;;8.40;99.90;;;;;;5016157;28;20427;-76
2022/11/26 00:17:12;;;;;;;5.83;3.10;;;8.40;99.90;;;;;;5016061;28;20404;-76
2022/11/26 00:19:38;;;;;;;14.10;4.10;;;8.40;99.90;;;;;;5005890;28;20181;-76
2022/11/26 00:22:04;;;;;;;8.20;4.30;;;8.30;99.90;;;;;;4995878;28;20577;-76
2022/11/26 00:24:30;;;;;;;11.53;4.10;;;8.20;99.90;;;;;;4977922;28;20530;-76
2022/11/26 00:26:58;;;;;;;10.27;4.93;;;8.30;99.90;;;;;;4995915;28;20946;-76
2022/11/26 00:29:24;;;;;;;7.10;3.67;;;8.30;99.90;;;;;;4995309;28;20280;-75
2022/11/26 00:31:49;;;;;;;11.50;3.33;;;8.40;99.90;;;;;;5012971;28;20929;-75
2022/11/26 00:34:15;;;;;;;5.53;3.13;;;8.30;99.90;;;;;;5014827;28;20194;-77
2022/11/26 00:36:43;;;;;;;9.33;3.60;;;8.30;99.90;;;;;;4997710;28;20185;-75
2022/11/26 00:39:29;;;;;;;6.83;3.20;;;8.40;99.90;;;;;;5015539;28;20244;-76
2022/11/26 00:41:54;;;;;;;4.67;3.50;;;8.50;99.90;;;;;;5014959;28;20414;-76
2022/11/26 00:44:24;;;;;;;4.40;3.37;;;8.60;99.90;;;;;;5015118;28;20441;-76
2022/11/26 00:46:50;;;;;;;6.40;3.53;;;8.70;99.90;;;;;;5015116;28;20171;-76
2022/11/26 00:49:16;;;;;;;4.40;3.20;;;8.70;99.90;;;;;;5008267;28;21028;-76
2022/11/26 00:51:42;;;;;;;7.73;3.50;;;8.70;99.90;;;;;;4994169;28;20481;-76
2022/11/26 00:54:13;;;;;;;5.70;3.57;;;8.80;99.90;;;;;;4995492;28;20427;-76
2022/11/26 00:56:39;;;;;;;6.80;3.33;;;8.80;99.90;;;;;;4995889;28;20399;-76
2022/11/26 00:59:05;;;;;;;8.83;3.00;;;8.90;99.90;;;;;;4995280;28;20530;-76
2022/11/26 01:01:31;;;;;;;10.50;3.07;;;8.90;99.90;;;;;;4995015;28;20811;-76
2022/11/26 01:03:58;;;;;;;5.57;2.90;;;8.80;99.90;;;;;;4995854;28;20204;-76
2022/11/26 01:06:34;;;;;;;6.90;2.80;;;9.00;99.90;;;;;;4994656;28;20408;-76
2022/11/26 01:09:00;;;;;;;5.00;2.40;;;9.00;99.90;;;;;;4995485;28;20515;-76
2022/11/26 01:11:26;;;;;;;7.10;3.00;;;8.90;99.90;;;;;;5002673;28;20895;-76
2022/11/26 01:13:53;;;;;;;8.00;2.93;;;9.00;99.90;;;;;;5014283;28;20437;-75
2022/11/26 01:16:23;;;;;;;9.03;3.03;;;9.10;99.90;;;;;;5014082;28;20170;-76
2022/11/26 01:18:52;;;;;;;5.90;3.03;;;9.20;99.90;;;;;;5014137;28;20415;-76
2022/11/26 01:21:18;;;;;;;6.90;3.50;;;9.20;99.90;;;;;;5003266;28;20414;-76
2022/11/26 01:23:44;;;;;;;7.03;2.67;;;9.30;99.90;;;;;;4994305;28;20522;-76
2022/11/26 01:26:48;;;;;;;5.63;2.97;;;9.30;99.90;;;;;;4994359;28;20490;-76
2022/11/26 01:29:16;;;;;;;5.03;3.00;;;9.40;99.90;;;;;;4994096;28;20190;-76
2022/11/26 01:31:42;;;;;;;6.40;2.90;;;9.40;99.90;;;;;;4994296;28;20415;-76
2022/11/26 01:34:07;;;;;;;7.60;2.93;;;9.50;99.90;;;;;;4993778;28;20417;-76
2022/11/26 01:36:38;;;;;;;5.80;2.50;;;9.40;99.90;;;;;;4991957;28;20555;-76
2022/11/26 01:39:12;;;;;;;5.60;2.63;;;9.40;99.90;;;;;;4977167;28;20192;-76
2022/11/26 01:42:05;;;;;;;6.67;2.57;;;9.50;99.90;;;;;;4994212;28;20446;-76
2022/11/26 01:44:34;;;;;;;6.43;3.00;;;9.40;99.90;;;;;;4993679;28;20490;-76
2022/11/26 01:47:00;;;;;;;8.17;2.67;;;9.40;99.90;;;;;;4994523;28;20443;-76
2022/11/26 01:49:28;;;;;;;5.67;3.03;;;9.50;99.90;;;;;;4994260;28;20822;-76
2022/11/26 01:52:11;;;;;;;6.20;3.00;;;9.40;99.90;;;;;;4992855;28;20416;-76
2022/11/26 01:54:40;;;;;;;5.20;2.63;;;9.40;99.90;;;;;;4994021;28;20467;-76
2022/11/26 01:57:16;;;;;;;6.00;2.70;;;9.50;99.90;;;;;;4993998;28;20478;-76
2022/11/26 01:59:45;;;;;;;4.77;2.90;;;9.50;99.90;;;;;;4976433;28;20418;-76
2022/11/26 02:02:11;;;;;;;5.20;3.10;;;9.50;99.90;;;;;;4993869;28;20408;-76
2022/11/26 02:04:45;;;;;;;4.83;2.30;;;9.50;99.90;;;;;;4993818;28;20477;-76
2022/11/26 02:07:11;;;;;;;5.67;2.23;;;9.40;99.90;;;;;;4993105;28;20252;-76
2022/11/26 02:09:37;;;;;;;4.10;2.40;;;9.50;99.90;;;;;;4992789;28;20540;-76
2022/11/26 02:12:03;;;;;;;6.37;2.50;;;9.50;99.90;;;;;;4994516;28;20219;-76
2022/11/26 02:14:33;;;;;;;4.87;2.97;;;9.60;99.90;;;;;;4994319;28;20300;-75
2022/11/26 02:17:02;;;;;;;6.10;3.00;;;9.60;99.90;;;;;;4994304;28;20183;-74
2022/11/26 02:19:44;;;;;;;8.93;3.13;;;9.60;99.90;;;;;;4975853;28;20450;-75
2022/11/26 02:22:34;;;;;;;6.93;2.53;;;9.60;99.90;;;;;;4993690;28;20483;-75
2022/11/26 02:25:24;;;;;;;6.17;3.03;;;9.50;99.90;;;;;;4994076;28;20503;-75
2022/11/26 02:28:04;;;;;;;5.40;2.43;;;9.50;99.90;;;;;;4993905;28;20383;-75
2022/11/26 02:30:40;;;;;;;5.60;2.50;;;9.50;99.90;;;;;;4994037;28;20391;-75
2022/11/26 02:33:25;;;;;;;7.13;2.60;;;9.50;99.90;;;;;;4994184;28;20975;-75
2022/11/26 02:36:12;;;;;;;4.83;2.53;;;9.40;99.90;;;;;;4993386;28;20430;-75
2022/11/26 02:38:38;;;;;;;5.00;2.73;;;9.40;99.90;;;;;;4993748;28;20760;-75
2022/11/26 02:41:04;;;;;;;6.47;2.50;;;9.40;99.90;;;;;;4993572;28;20768;-75
2022/11/26 02:43:32;;;;;;;3.77;2.30;;;9.40;99.90;;;;;;4993459;28;20921;-75
2022/11/26 02:46:09;;;;;;;5.27;2.60;;;9.30;99.90;;;;;;4992790;28;20411;-74
2022/11/26 02:48:40;;;;;;;5.70;2.90;;;9.40;99.90;;;;;;4992330;28;20498;-75
2022/11/26 02:51:26;;;;;;;6.07;2.53;;;9.30;99.90;;;;;;4992141;28;20419;-75
2022/11/26 02:53:53;;;;;;;6.37;3.20;;;9.30;99.90;;;;;;4993160;28;20834;-75
2022/11/26 02:56:26;;;;;;;7.13;3.00;;;9.20;99.90;;;;;;4992844;28;20408;-75
2022/11/26 02:58:53;;;;;;;7.30;3.40;;;9.20;99.90;;;;;;4992953;28;20900;-75
2022/11/26 03:01:28;;;;;;;4.70;2.60;;;9.20;99.90;;;;;;4993490;28;20466;-76
2022/11/26 03:03:57;;;;;;;3.90;2.90;;;9.20;99.90;;;;;;4992902;28;20430;-75
2022/11/26 03:06:24;;;;;;;6.07;3.23;;;9.10;99.90;;;;;;4992501;28;20514;-76
2022/11/26 03:08:52;;;;;;;5.40;2.80;;;9.10;99.90;;;;;;4992929;28;20455;-76
2022/11/26 03:11:17;;;;;;;8.80;4.30;;;9.10;99.90;;;;;;4992525;28;20925;-76
2022/11/26 03:13:43;;;;;;;5.33;3.00;;;9.20;99.90;;;;;;4975154;28;20443;-76
2022/11/26 03:16:08;;;;;;;4.63;3.20;;;9.10;99.90;;;;;;4992774;28;20165;-76
2022/11/26 03:18:34;;;;;;;5.93;3.70;;;9.20;99.90;;;;;;4993071;28;20214;-76
2022/11/26 03:20:59;;;;;;;5.10;2.67;;;9.30;99.90;;;;;;4992662;28;20184;-75
2022/11/26 03:23:25;;;;;;;3.73;2.90;;;9.30;99.90;;;;;;4975658;28;20612;-76
2022/11/26 03:25:50;;;;;;;6.40;2.90;;;9.40;99.90;;;;;;4974982;28;20247;-76
2022/11/26 03:28:16;;;;;;;5.00;2.73;;;9.40;99.90;;;;;;4992591;28;20654;-76
2022/11/26 03:30:42;;;;;;;4.43;2.70;;;9.40;99.90;;;;;;4992683;28;20198;-76
2022/11/26 03:33:07;;;;;;;4.73;2.80;;;9.40;99.90;;;;;;4992676;28;20197;-76
2022/11/26 03:35:33;;;;;;;4.03;2.73;;;9.30;99.90;;;;;;4993860;28;20185;-76
2022/11/26 03:37:58;;;;;;;5.63;3.20;;;9.40;99.90;;;;;;4994651;28;20232;-76
2022/11/26 03:40:24;;;;;;;6.53;3.77;;;9.40;99.90;;;;;;4991621;28;20199;-75
2022/11/26 03:42:50;;;;;;;5.27;3.20;;;9.40;99.90;;;;;;4993362;28;20203;-75
2022/11/26 03:45:15;;;;;;;6.73;3.40;;;9.40;99.90;;;;;;4993549;28;20673;-75
2022/11/26 03:47:41;;;;;;;9.20;3.50;;;9.40;99.90;;;;;;4992670;28;20512;-75
2022/11/26 03:50:07;;;;;;;3.80;2.50;;;9.40;99.90;;;;;;4992603;28;20168;-76
2022/11/26 03:52:33;;;;;;;5.60;3.37;;;9.50;99.90;;;;;;4992434;28;20165;-76
2022/11/26 03:54:58;;;;;;;5.83;3.23;;;9.40;99.90;;;;;;4992854;28;20403;-76
2022/11/26 03:57:24;;;;;;;9.30;4.57;;;9.40;99.90;;;;;;4991484;28;20200;-76
2022/11/26 03:59:49;;;;;;;5.10;3.23;;;9.40;99.90;;;;;;4993778;28;20575;-76
2022/11/26 04:02:15;;;;;;;9.23;3.80;;;9.30;99.90;;;;;;4996182;28;20177;-76
2022/11/26 04:04:41;;;;;;;8.40;3.43;;;9.20;99.90;;;;;;4996324;28;20517;-76
2022/11/26 04:07:06;;;;;;;6.33;3.37;;;9.20;99.90;;;;;;4996117;28;20180;-76
2022/11/26 04:09:32;;;;;;;7.17;3.60;;;9.20;99.90;;;;;;4978546;28;20203;-76
2022/11/26 04:11:57;;;;;;;12.13;4.53;;;9.10;99.90;;;;;;4995750;28;20616;-76
2022/11/26 04:14:23;;;;;;;9.00;3.10;;;9.00;99.90;;;;;;4995870;28;20247;-76
2022/11/26 04:16:49;;;;;;;6.17;3.03;;;9.00;99.90;;;;;;4995640;28;20633;-75
2022/11/26 04:19:14;;;;;;;5.80;3.20;;;8.90;99.90;;;;;;4996056;28;20505;-76
2022/11/26 04:21:40;;;;;;;7.30;4.10;;;8.90;99.90;;;;;;4995848;28;20254;-76
2022/11/26 04:24:06;;;;;;;5.30;2.80;;;8.90;99.90;;;;;;4977780;28;20294;-76
2022/11/26 04:26:32;;;;;;;6.60;3.47;;;8.90;99.90;;;;;;4995137;28;20278;-75
2022/11/26 04:28:58;;;;;;;10.27;4.27;;;9.00;99.90;;;;;;4995262;28;20557;-76
2022/11/26 04:31:24;;;;;;;5.23;3.10;;;9.00;99.90;;;;;;4995670;28;20199;-76
2022/11/26 04:33:49;;;;;;;6.07;3.30;;;8.90;99.90;;;;;;4995365;28;20456;-76
2022/11/26 04:36:15;;;;;;;5.37;3.37;;;8.90;99.90;;;;;;5011267;28;20752;-75
2022/11/26 04:38:41;;;;;;;5.73;2.83;;;8.90;99.90;;;;;;5015080;28;20185;-75
2022/11/26 04:41:06;;;;;;;8.90;3.80;;;9.00;99.90;;;;;;5014576;28;20238;-76
2022/11/26 04:43:32;;;;;;;5.77;2.87;;;9.10;99.90;;;;;;4997838;28;20207;-76
2022/11/26 04:45:58;;;;;;;5.53;3.60;;;9.10;99.90;;;;;;4995053;28;20171;-76
2022/11/26 04:48:23;;;;;;;8.43;4.20;;;9.00;99.90;;;;;;4994951;28;20843;-76
2022/11/26 04:50:49;;;;;;;8.43;3.23;;;9.00;99.90;;;;;;4995170;28;20185;-76
2022/11/26 04:53:15;;;;;;;7.23;4.47;;;8.90;99.90;;;;;;4995162;28;20198;-76
2022/11/26 04:55:41;;;;;;;11.80;4.17;;;8.80;99.90;;;;;;4994826;28;20193;-75
2022/11/26 04:58:07;;;;;;;6.23;3.57;;;8.70;99.90;;;;;;4994221;28;20433;-76
2022/11/26 05:00:32;;;;;;;9.20;4.43;;;8.70;99.90;;;;;;4994865;28;20183;-75
2022/11/26 05:02:58;;;;;;;8.30;3.60;;;8.60;99.90;;;;;;4994748;28;20194;-75
2022/11/26 05:05:23;;;;;;;8.60;3.57;;;8.50;99.90;;;;;;4995389;28;20675;-75
2022/11/26 05:07:49;;;;;;;5.63;4.07;;;8.40;99.90;;;;;;4985916;28;20183;-75
2022/11/26 05:10:14;;;;;;;7.03;4.33;;;8.30;99.90;;;;;;4975605;28;20288;-75
2022/11/26 05:12:40;;;;;;;9.60;4.13;;;8.30;99.90;;;;;;4974012;28;20191;-75
2022/11/26 05:15:06;;;;;;;6.77;3.50;;;8.20;99.90;;;;;;4975021;28;20176;-76
2022/11/26 05:17:32;;;;;;;11.83;4.00;;;8.10;99.90;;;;;;4958045;28;20174;-76
2022/11/26 05:19:58;;;;;;;6.43;3.63;;;8.10;99.90;;;;;;4975094;28;20518;-75
2022/11/26 05:22:23;;;;;;;13.20;4.70;;;8.00;99.90;;;;;;4974831;28;20197;-75
2022/11/26 05:24:49;;;;;;;8.17;4.13;;;7.90;99.90;;;;;;4974957;28;20176;-76
2022/11/26 05:27:15;;;;;;;10.03;5.50;;;7.90;99.90;;;;;;4982033;28;20655;-76
2022/11/26 05:29:40;;;;;;;10.50;4.37;;;7.80;99.90;;;;;;4993936;28;20203;-75
2022/11/26 05:32:06;;;;;;;9.37;4.70;;;7.70;99.90;;;;;;4993702;28;20181;-75
2022/11/26 05:34:31;;;;;;;9.10;5.00;;;7.70;99.90;;;;;;4984879;28;20206;-75
2022/11/26 05:36:57;;;;;;;13.43;6.40;;;7.60;99.90;;;;;;4984258;28;20744;-75
2022/11/26 05:39:22;;;;;;;16.07;5.47;;;7.60;99.90;;;;;;4984678;28;20190;-75
2022/11/26 05:41:48;;;;;;;10.10;5.33;;;7.50;99.90;;;;;;4984617;28;20186;-75
2022/11/26 05:44:13;;;;;;;5.60;4.70;;;7.50;99.90;;;;;;4985041;28;20296;-75
2022/11/26 05:46:41;;;;;;;6.37;4.97;;;7.50;99.90;;;;;;4984719;28;20624;-75
2022/11/26 05:49:07;;;;;;;4.77;4.37;;;7.50;99.90;;;;;;4984633;28;20194;-75
2022/11/26 05:51:33;;;;;;;9.53;6.37;;;7.40;99.90;;;;;;4984668;28;20470;-75
2022/11/26 05:53:58;;;;;;;7.30;5.33;;;7.30;99.90;;;;;;4984299;28;20441;-75
2022/11/26 05:56:24;;;;;;;15.50;8.80;;;7.30;99.90;;;;;;4983666;28;20177;-75
2022/11/26 05:58:50;;;;;;;13.87;7.93;;;7.20;99.90;;;;;;4984175;28;20182;-74
2022/11/26 06:01:15;;;;;;;11.53;6.17;;;7.20;99.90;;;;;;4983398;28;20199;-75
2022/11/26 06:03:41;;;;;;;6.53;5.30;;;7.20;99.90;;;;;;4984128;28;20196;-74
2022/11/26 06:06:07;;;;;;;8.70;5.00;;;7.10;99.90;;;;;;4983595;28;20177;-74
2022/11/26 06:08:33;;;;;;;7.97;6.13;;;7.00;99.90;;;;;;4984008;28;20201;-73
2022/11/26 06:10:58;;;;;;;5.53;4.93;;;7.00;99.90;;;;;;4984507;28;20563;-75
2022/11/26 06:13:24;;;;;;;10.73;5.97;;;6.90;99.90;;;;;;4983648;28;20202;-74
2022/11/26 06:15:50;;;;;;;6.33;5.00;;;6.90;99.90;;;;;;4966515;28;20193;-75
2022/11/26 06:18:16;;;;;;;9.50;5.50;;;6.90;99.90;;;;;;4985184;28;20482;-75
2022/11/26 06:20:41;;;;;;;14.63;7.67;;;6.80;99.90;;;;;;4984322;28;20177;-75
2022/11/26 06:23:07;;;;;;;18.97;9.10;;;6.70;99.90;;;;;;4984061;28;20947;-75
2022/11/26 06:25:32;;;;;;;16.63;10.20;;;6.70;99.90;;;;;;4984244;28;20231;-75
2022/11/26 06:27:58;;;;;;;12.50;9.40;;;6.70;99.90;;;;;;4984289;28;20659;-75
2022/11/26 06:30:24;;;;;;;12.90;8.77;;;6.70;99.90;;;;;;4985390;28;20696;-75
2022/11/26 06:32:49;;;;;;;13.10;8.73;;;6.60;99.90;;;;;;4993744;28;20192;-75
2022/11/26 06:35:15;;;;;;;14.47;8.40;;;6.50;99.90;;;;;;4996101;28;20458;-75
2022/11/26 06:37:41;;;;;;;18.57;9.27;;;6.50;99.90;;;;;;4993840;28;20173;-76
2022/11/26 06:40:08;;;;;;;8.57;6.90;;;6.50;99.90;;;;;;4993820;28;20189;-75
2022/11/26 06:42:33;;;;;;;11.07;7.27;;;6.50;99.90;;;;;;4994186;28;20219;-76
2022/11/26 06:44:59;;;;;;;8.60;7.67;;;6.50;99.90;;;;;;4994084;28;20409;-74
2022/11/26 06:47:25;;;;;;;7.83;6.53;;;6.50;99.90;;;;;;4992914;28;20251;-75
2022/11/26 06:49:50;;;;;;;7.00;6.00;;;6.50;99.90;;;;;;4993125;28;20684;-75
2022/11/26 06:52:16;;;;;;;7.60;6.40;;;6.40;99.90;;;;;;4993308;28;20182;-76
2022/11/26 06:54:42;;;;;;;5.97;5.20;;;6.30;99.90;;;;;;4993278;28;20205;-76
2022/11/26 06:57:07;;;;;;;6.80;5.60;;;6.30;99.90;;;;;;4991342;28;20300;-76
2022/11/26 06:59:33;;;;;;;12.67;7.70;;;6.30;99.90;;;;;;4993085;28;20629;-75
2022/11/26 07:01:58;;;;;;;7.73;6.07;;;6.30;99.90;;;;;;4992831;28;20168;-75
2022/11/26 07:04:24;;;;;;;7.40;5.17;;;6.30;99.90;;;;;;4992863;28;20206;-75
2022/11/26 07:06:49;;;;;;;7.57;6.07;;;6.30;99.90;;;;;;4975512;28;20185;-75
2022/11/26 07:09:15;;;;;;;12.23;6.03;;;6.30;99.90;;;;;;4975180;28;20236;-75
2022/11/26 07:11:41;;;;;;;10.10;6.57;;;6.30;99.90;;;;;;4992639;28;20307;-75
2022/11/26 07:14:07;;;;;;;15.93;9.30;;;6.30;99.90;;;;;;4992576;28;20184;-75
2022/11/26 07:16:34;;;;;;;16.10;7.67;;;6.40;99.90;;;;;;4993330;28;20517;-75
2022/11/26 07:19:00;;;;;;;8.47;6.90;;;6.40;99.90;;;;;;4992647;28;20411;-76
2022/11/26 07:21:27;;;;;;;11.07;8.27;;;6.40;99.90;;;;;;4993798;28;20985;-75
2022/11/26 07:23:53;;;;;;;10.83;7.83;;;6.50;99.90;;;;;;4992511;28;20196;-75
2022/11/26 07:26:20;;;;;;;11.30;8.80;;;6.60;99.90;;;;;;4992324;28;20452;-75
2022/11/26 07:28:46;;;;;;;16.07;9.00;;;6.70;99.90;;;;;;4992216;28;20474;-75
2022/11/26 07:31:15;;;;;;;12.83;8.90;;;6.70;99.90;;;;;;4992085;28;20725;-75
2022/11/26 07:33:41;;;;;;;11.30;8.43;;;6.90;99.90;;;;;;4992388;28;20472;-75
2022/11/26 07:36:25;;;;;;;13.33;9.50;;;7.10;99.90;;;;;;4995444;28;20483;-75
2022/11/26 07:38:59;;;;;;;13.30;10.40;;;7.20;99.90;;;;;;4996771;28;20484;-74
2022/11/26 07:41:27;;;;;;;13.53;9.67;;;7.30;99.90;;;;;;4996006;28;20400;-75
2022/11/26 07:43:53;;;;;;;14.50;10.33;;;7.40;99.90;;;;;;4996227;28;20548;-75
2022/11/26 07:46:21;;;;;;;25.23;14.97;;;7.50;99.90;;;;;;4996855;28;20759;-75
2022/11/26 07:48:46;;;;;;;16.70;11.60;;;7.70;99.90;;;;;;4996327;28;21003;-75
2022/11/26 07:51:31;;;;;;;15.37;11.43;;;7.90;99.90;;;;;;4996479;28;20411;-75
2022/11/26 07:53:59;;;;;;;9.87;7.20;;;7.80;99.90;;;;;;4996131;28;20233;-75
2022/11/26 07:56:25;;;;;;;11.23;7.90;;;8.00;99.90;;;;;;4977288;28;20786;-74
2022/11/26 07:58:51;;;;;;;10.47;6.97;;;8.10;99.90;;;;;;4996108;28;20912;-75
2022/11/26 08:01:19;;;;;;;14.57;9.63;;;8.30;99.90;;;;;;4996048;28;20421;-75
2022/11/26 08:03:47;;;;;;;15.20;9.37;;;8.40;99.90;;;;;;4996171;28;20194;-75
2022/11/26 08:06:18;;;;;;;14.00;9.43;;;8.40;99.90;;;;;;4978561;28;20419;-75
2022/11/26 08:08:44;;;;;;;12.20;10.40;;;8.40;99.90;;;;;;4996003;28;20579;-75
2022/11/26 08:11:24;;;;;;;24.37;16.13;;;8.50;99.90;;;;;;4996051;28;20410;-75
2022/11/26 08:13:55;;;;;;;28.23;17.43;;;8.60;99.90;;;;;;4996095;28;20194;-75
2022/11/26 08:16:21;;;;;;;23.07;14.07;;;8.70;99.90;;;;;;4995220;28;20578;-75
2022/11/26 08:18:47;;;;;;;11.40;8.23;;;8.70;99.90;;;;;;4996625;28;20443;-76
2022/11/26 08:21:12;;;;;;;12.47;7.43;;;8.30;99.90;;;;;;4996668;28;20435;-75
2022/11/26 08:23:38;;;;;;;13.10;9.23;;;8.30;99.90;;;;;;4995616;28;20204;-75
2022/11/26 08:26:06;;;;;;;15.30;12.00;;;8.50;99.90;;;;;;4978390;28;20190;-75
2022/11/26 08:28:32;;;;;;;15.37;10.07;;;8.50;99.90;;;;;;4995635;28;20232;-75
2022/11/26 08:31:07;;;;;;;43.27;34.43;;;8.60;99.90;;;;;;4995717;28;20441;-75
2022/11/26 08:33:33;;;;;;;22.53;18.53;;;8.70;99.90;;;;;;4995753;28;20784;-75
2022/11/26 08:35:59;;;;;;;18.17;16.27;;;8.80;99.90;;;;;;5012076;28;20445;-75
2022/11/26 08:38:26;;;;;;;11.00;9.20;;;8.90;99.90;;;;;;5015343;28;20409;-76
2022/11/26 08:40:53;;;;;;;10.33;7.60;;;8.90;99.90;;;;;;5015610;28;20175;-75
2022/11/26 08:43:19;;;;;;;11.47;8.90;;;9.00;99.90;;;;;;5004409;28;20583;-75
2022/11/26 08:45:52;;;;;;;10.73;8.90;;;9.00;99.90;;;;;;4995596;28;20430;-75
2022/11/26 08:48:17;;;;;;;10.60;7.70;;;9.10;99.90;;;;;;4978129;28;20483;-76
2022/11/26 08:50:43;;;;;;;21.60;14.70;;;9.10;99.90;;;;;;4995549;28;20439;-75
2022/11/26 08:53:08;;;;;;;22.77;15.67;;;9.10;99.90;;;;;;4995198;28;20280;-75
2022/11/26 08:55:34;;;;;;;15.27;11.73;;;9.00;99.90;;;;;;4995501;28;20733;-75
2022/11/26 08:58:00;;;;;;;19.47;12.67;;;9.00;99.90;;;;;;4994189;28;20528;-75
2022/11/26 09:00:25;;;;;;;21.37;15.70;;;9.00;99.90;;;;;;4995543;28;20180;-75
2022/11/26 09:02:51;;;;;;;21.90;15.70;;;9.00;99.90;;;;;;4995471;28;20710;-75
2022/11/26 09:05:16;;;;;;;20.50;14.27;;;8.90;99.90;;;;;;4995536;28;20639;-75
2022/11/26 09:07:42;;;;;;;19.07;13.73;;;8.90;99.90;;;;;;4995199;28;20513;-75
2022/11/26 09:10:08;;;;;;;17.07;11.97;;;8.90;99.90;;;;;;4995185;28;20246;-75
2022/11/26 09:12:33;;;;;;;15.80;11.80;;;8.90;99.90;;;;;;4995152;28;20189;-75
2022/11/26 09:14:59;;;;;;;16.63;10.87;;;8.90;99.90;;;;;;4977317;28;20435;-75
2022/11/26 09:17:24;;;;;;;15.87;10.90;;;9.00;99.90;;;;;;4995007;28;20174;-75
2022/11/26 09:19:50;;;;;;;13.70;9.40;;;8.90;99.90;;;;;;4995540;28;20228;-75
2022/11/26 09:22:15;;;;;;;13.53;7.97;;;9.00;99.90;;;;;;4995264;28;20176;-75
2022/11/26 09:24:41;;;;;;;11.37;6.87;;;9.00;99.90;;;;;;4995227;28;20668;-75
2022/11/26 09:27:10;;;;;;;10.13;7.10;;;8.90;99.90;;;;;;4994938;28;20186;-75
2022/11/26 09:29:36;;;;;;;15.00;7.63;;;8.80;99.90;;;;;;4977607;28;20279;-75
2022/11/26 09:32:02;;;;;;;12.43;7.03;;;8.90;99.90;;;;;;4995249;28;20421;-75
2022/11/26 09:34:28;;;;;;;11.37;6.60;;;8.90;99.90;;;;;;4994919;28;20284;-76
2022/11/26 09:36:53;;;;;;;8.10;6.07;;;9.00;99.90;;;;;;4994721;28;20219;-75
2022/11/26 09:39:19;;;;;;;10.23;6.13;;;9.10;99.90;;;;;;4995180;28;20603;-76
2022/11/26 09:42:04;;;;;;;11.87;7.50;;;9.20;99.90;;;;;;4994658;28;20191;-75
2022/11/26 09:44:52;;;;;;;10.07;7.60;;;9.20;99.90;;;;;;4994535;28;20203;-75
2022/11/26 09:47:27;;;;;;;9.23;6.77;;;9.00;99.90;;;;;;4994943;28;20394;-74
2022/11/26 09:50:02;;;;;;;10.20;5.73;;;9.10;99.90;;;;;;4994393;28;20452;-74
2022/11/26 09:52:48;;;;;;;13.77;8.70;;;9.20;99.90;;;;;;4996197;28;20909;-75
2022/11/26 09:55:28;;;;;;;12.83;8.87;;;9.20;99.90;;;;;;4994594;28;20463;-75
2022/11/26 09:58:16;;;;;;;9.70;8.07;;;9.10;99.90;;;;;;4998231;28;20399;-73
2022/11/26 10:00:45;;;;;;;9.73;7.30;;;9.10;99.90;;;;;;4979164;28;20437;-75
2022/11/26 10:03:16;;;;;;;9.50;7.30;;;9.10;99.90;;;;;;4996219;28;20912;-73
2022/11/26 10:06:02;;;;;;;12.57;8.70;;;9.20;99.90;;;;;;4995645;28;20404;-73
2022/11/26 10:08:49;;;;;;;12.93;8.83;;;9.20;99.90;;;;;;4995466;28;20567;-76
2022/11/26 10:11:36;;;;;;;14.83;8.37;;;9.10;99.90;;;;;;4995231;28;20436;-74
2022/11/26 10:14:16;;;;;;;9.30;8.23;;;9.40;99.90;;;;;;4994138;28;20469;-74
2022/11/26 10:16:57;;;;;;;8.70;7.40;;;9.60;99.90;;;;;;4995788;28;20400;-74
2022/11/26 10:19:45;;;;;;;7.90;5.93;;;9.80;99.90;;;;;;4995252;28;20462;-74
2022/11/26 10:22:25;;;;;;;13.17;6.30;;;9.90;99.90;;;;;;4994734;28;20491;-75
2022/11/26 10:24:51;;;;;;;11.77;7.13;;;10.10;99.90;;;;;;4977753;28;20415;-74
2022/11/26 10:27:19;;;;;;;8.57;6.67;;;10.30;99.90;;;;;;4995379;28;20751;-75
2022/11/26 10:29:55;;;;;;;12.70;8.93;;;10.60;99.90;;;;;;4977473;28;20508;-74
2022/11/26 10:32:26;;;;;;;15.23;8.33;;;10.80;99.90;;;;;;4995184;28;20384;-75
2022/11/26 10:34:55;;;;;;;16.90;9.90;;;11.00;99.90;;;;;;4994670;28;20932;-76
2022/11/26 10:37:23;;;;;;;12.80;9.23;;;10.90;99.90;;;;;;4994847;28;20458;-75
2022/11/26 10:39:54;;;;;;;12.90;8.00;;;10.70;99.90;;;;;;4977320;28;20416;-75
2022/11/26 10:42:21;;;;;;;12.90;7.80;;;10.60;99.90;;;;;;4976697;28;20404;-75
2022/11/26 10:44:51;;;;;;;11.77;6.57;;;10.80;99.90;;;;;;4976760;28;20420;-76
2022/11/26 10:47:35;;;;;;;9.73;6.40;;;11.00;99.90;;;;;;4994630;28;20427;-76
2022/11/26 10:50:03;;;;;;;12.67;6.80;;;12.30;99.90;;;;;;4993987;28;20516;-76
2022/11/26 10:52:32;;;;;;;7.47;6.13;;;13.10;99.90;;;;;;4977452;28;20401;-76
2022/11/26 10:55:23;;;;;;;10.53;6.77;;;13.20;99.90;;;;;;4995192;28;20398;-76
2022/11/26 10:57:56;;;;;;;8.37;5.70;;;13.00;99.90;;;;;;4994872;28;20802;-76
2022/11/26 11:00:43;;;;;;;9.57;5.70;;;13.10;99.90;;;;;;4996259;28;20392;-75
2022/11/26 11:03:20;;;;;;;9.60;5.23;;;13.50;99.90;;;;;;4995774;28;20423;-75
2022/11/26 11:05:46;;;;;;;6.77;5.63;;;13.40;99.90;;;;;;4996202;28;20866;-75
2022/11/26 11:08:31;;;;;;;13.63;6.17;;;13.20;99.90;;;;;;5007642;28;20428;-74
2022/11/26 11:11:00;;;;;;;9.07;6.43;;;13.30;99.90;;;;;;5015134;28;20167;-74
2022/11/26 11:13:39;;;;;;;10.70;5.93;;;13.90;99.90;;;;;;5016237;28;20454;-74
2022/11/26 11:16:05;;;;;;;9.40;6.33;;;13.70;99.90;;;;;;5000062;28;20428;-75
2022/11/26 11:18:32;;;;;;;10.47;6.90;;;13.60;99.90;;;;;;5017457;28;20415;-74
2022/11/26 11:21:01;;;;;;;10.80;8.00;;;13.70;99.90;;;;;;5019232;28;20506;-74
2022/11/26 11:23:31;;;;;;;12.50;7.53;;;13.30;99.90;;;;;;5018654;28;20411;-74
2022/11/26 11:26:20;;;;;;;11.67;6.63;;;13.00;99.90;;;;;;5000462;28;20408;-75
2022/11/26 11:28:48;;;;;;;9.17;6.20;;;14.10;99.90;;;;;;5018138;28;20477;-74
2022/11/26 11:31:23;;;;;;;9.57;6.00;;;15.80;99.90;;;;;;5005588;28;20424;-75
2022/11/26 11:33:50;;;;;;;9.20;6.10;;;17.00;99.90;;;;;;4997573;28;20445;-75
2022/11/26 11:36:28;;;;;;;7.93;5.80;;;18.70;99.90;;;;;;4997389;28;20428;-75
2022/11/26 11:38:55;;;;;;;11.53;5.07;;;20.30;99.90;;;;;;5007725;28;20399;-75
2022/11/26 11:41:29;;;;;;;7.00;4.93;;;21.70;97.90;;;;;;5021478;28;20404;-75
2022/11/26 11:44:05;;;;;;;8.97;5.13;;;22.70;94.40;;;;;;5018738;28;20443;-75
2022/11/26 11:46:43;;;;;;;5.80;5.20;;;22.10;93.60;;;;;;5015018;28;20380;-75
2022/11/26 11:49:30;;;;;;;10.60;6.97;;;21.80;93.00;;;;;;4996839;28;20439;-75
2022/11/26 11:52:19;;;;;;;9.70;6.57;;;20.60;93.80;;;;;;4997093;28;20875;-75
2022/11/26 11:54:58;;;;;;;8.20;5.40;;;20.60;94.50;;;;;;4996324;28;20459;-75
2022/11/26 11:57:40;;;;;;;7.57;5.43;;;19.90;94.00;;;;;;4995806;28;20499;-75
2022/11/26 12:00:23;;;;;;;7.37;4.80;;;19.50;95.00;;;;;;4996127;28;20392;-75
2022/11/26 12:02:54;;;;;;;16.00;5.10;;;20.00;94.00;;;;;;4978679;28;20435;-75
2022/11/26 12:05:44;;;;;;;9.87;3.93;;;19.50;94.10;;;;;;4995110;28;20392;-75
2022/11/26 12:08:34;;;;;;;10.83;4.27;;;18.30;95.50;;;;;;4996374;28;20388;-76
2022/11/26 12:11:20;;;;;;;11.60;5.67;;;17.40;97.10;;;;;;4996604;28;20388;-75
2022/11/26 12:13:53;;;;;;;7.80;4.60;;;15.90;99.20;;;;;;4996007;28;20474;-76
2022/11/26 12:16:23;;;;;;;9.00;5.50;;;15.10;99.90;;;;;;4996406;28;20447;-76
2022/11/26 12:19:11;;;;;;;9.40;4.63;;;14.80;99.90;;;;;;4996345;28;20419;-75
2022/11/26 12:21:45;;;;;;;8.40;4.70;;;14.70;99.90;;;;;;4995990;28;20387;-75
2022/11/26 12:24:14;;;;;;;7.90;4.50;;;15.30;99.90;;;;;;4996548;28;20438;-75
2022/11/26 12:26:47;;;;;;;13.20;5.60;;;15.20;99.90;;;;;;4996616;28;20505;-75
2022/11/26 12:29:30;;;;;;;11.93;5.50;;;14.00;99.90;;;;;;4995864;28;20455;-76
2022/11/26 12:32:10;;;;;;;14.50;5.80;;;12.90;99.90;;;;;;4996469;28;20387;-75
2022/11/26 12:34:58;;;;;;;10.77;7.00;;;12.10;99.90;;;;;;4997145;28;20514;-75
2022/11/26 12:37:30;;;;;;;7.80;5.40;;;12.00;99.90;;;;;;4997138;28;20521;-74
2022/11/26 12:40:00;;;;;;;8.00;5.60;;;12.00;99.90;;;;;;4997883;28;20753;-75
2022/11/26 12:42:44;;;;;;;10.83;6.23;;;11.90;99.90;;;;;;4982405;28;21000;-75
2022/11/26 12:45:19;;;;;;;7.47;5.30;;;12.00;99.90;;;;;;4981056;28;20449;-74
2022/11/26 12:48:01;;;;;;;12.33;5.53;;;12.10;99.90;;;;;;4979340;28;20415;-76
2022/11/26 12:50:49;;;;;;;7.20;4.77;;;12.20;99.90;;;;;;4979653;28;20438;-76
2022/11/26 12:53:34;;;;;;;12.03;5.80;;;11.90;99.90;;;;;;4979243;28;20430;-76
2022/11/26 12:56:23;;;;;;;11.53;5.93;;;11.90;99.90;;;;;;4987472;28;20434;-76
2022/11/26 12:59:04;;;;;;;7.87;5.27;;;12.00;99.90;;;;;;4997505;28;20396;-76
2022/11/26 13:01:31;;;;;;;9.87;5.80;;;11.80;99.90;;;;;;4999085;28;20533;-76
2022/11/26 13:03:59;;;;;;;13.23;7.17;;;11.70;99.90;;;;;;4998079;28;20423;-76
2022/11/26 13:07:04;;;;;;;7.50;4.80;;;11.60;99.90;;;;;;4996856;28;20423;-76